Gearhart, Oregon
Current Conditions -  °F | °C
As of 12:55 PM on Thursday 20 Nov 2014 (Local Time) from KAST Reporting Station
Light Rain Light Rain  
Wind Chill: 51°   Ceiling: 2900
Heat Index: 51°   Visibility: 10mi
Dew Point: 47°   Wind: 5mph
Humidity: 86%   Direction: 70°ENE
Pressure: 29.94"   Gusts: NA
Location:  45.8905°N, 123.667°W
Report Text: KAST 202055Z AUTO 07004KT 10SM -RA BKN029 OVC050 11/08 A2994 RMK AO2 RAE00B23E32B51 SLP137 P0000 60000 T01060083 58007
Loading
Personal Weather Stations






























Interactive Weather Map New forecast layout! Learn more

10-Day Weather Forecast

Advertisements
Track Severe Weather on mobile